Погода Жуатубана неделю

Минас-Жерайс, Бразилия

17 - 23 июля
  • 17июля
    Сегодня
    +12°
    +26°
    Ясно и безоблачно
    ВремяПогодаТемператураВлажностьДавлениеВетер, м/сВероятность осадков
    00:00Ясно и безоблачно+17°C63 %703 мм2.5 м/с5 %
    03:00Практически безоблачно+14°C84 %703 мм1.5 м/с5 %
    06:00Ясно и безоблачно+12°C92 %702 мм1.5 м/с5 %
    09:00Ясно и безоблачно+19°C56 %705 мм1.9 м/с5 %
    12:00Ясно и безоблачно+24°C38 %704 мм0.2 м/с5 %
    15:00Ясно и безоблачно+26°C34 %702 мм1.1 м/с5 %
    18:00Облачно с прояснениями+22°C44 %701 мм1.3 м/с5 %
    21:00Небольшая облачность+20°C57 %702 мм2.1 м/с5 %
  • 18июля
    Четверг
    +12°
    +27°
    Практически безоблачно
    ВремяПогодаТемператураВлажностьДавлениеВетер, м/сВероятность осадков
    00:00Ясно и безоблачно+17°C69 %701 мм1.2 м/с5 %
    03:00Ясно и безоблачно+14°C83 %700 мм1.7 м/с5 %
    06:00Практически безоблачно+13°C88 %700 мм1.5 м/с5 %
    09:00Практически безоблачно+19°C55 %703 мм1.1 м/с5 %
    12:00Практически безоблачно+25°C32 %702 мм0.7 м/с5 %
    15:00Практически безоблачно+27°C30 %701 мм1.3 м/с5 %
    18:00Ясно и безоблачно+23°C37 %701 мм2.3 м/с5 %
    21:00Ясно и безоблачно+20°C50 %702 мм2.3 м/с5 %
  • 19июля
    Пятница
    +11°
    +28°
    Ясно и безоблачно
    ВремяПогодаТемператураВлажностьДавлениеВетер, м/сВероятность осадков
    00:00Ясно и безоблачно+17°C66 %702 мм1.8 м/с5 %
    03:00Ясно и безоблачно+15°C80 %701 мм1.7 м/с5 %
    06:00Ясно и безоблачно+13°C88 %701 мм2.0 м/с5 %
    09:00Ясно и безоблачно+19°C55 %704 мм1.7 м/с5 %
    12:00Ясно и безоблачно+26°C32 %704 мм2.0 м/с5 %
    15:00Ясно и безоблачно+28°C30 %703 мм1.3 м/с5 %
    18:00Ясно и безоблачно+23°C39 %703 мм2.8 м/с5 %
    21:00Ясно и безоблачно+20°C57 %703 мм2.2 м/с5 %
  • 20июля
    Суббота
    +11°
    +28°
    Ясно и безоблачно
    ВремяПогодаТемператураВлажностьДавлениеВетер, м/сВероятность осадков
    00:00Ясно и безоблачно+17°C77 %702 мм1.7 м/с5 %
    03:00Ясно и безоблачно+14°C90 %701 мм1.5 м/с5 %
    06:00Ясно и безоблачно+12°C95 %701 мм1.5 м/с5 %
    09:00Ясно и безоблачно+19°C58 %704 мм1.7 м/с5 %
    12:00Ясно и безоблачно+25°C34 %703 мм1.4 м/с5 %
    15:00Ясно и безоблачно+28°C27 %702 мм2.2 м/с5 %
    18:00Ясно и безоблачно+23°C38 %701 мм2.8 м/с5 %
    21:00Ясно и безоблачно+19°C65 %702 мм2.9 м/с5 %
  • 21июля
    Воскресенье
    +12°
    +27°
    Ясно и безоблачно
    ВремяПогодаТемператураВлажностьДавлениеВетер, м/сВероятность осадков
    00:00Ясно и безоблачно+16°C81 %702 мм1.9 м/с5 %
    03:00Ясно и безоблачно+14°C92 %701 мм1.8 м/с5 %
    06:00Ясно и безоблачно+12°C94 %701 мм1.6 м/с5 %
    09:00Ясно и безоблачно+18°C61 %703 мм2.7 м/с5 %
    12:00Ясно и безоблачно+25°C38 %703 мм3.2 м/с5 %
    15:00Ясно и безоблачно+27°C33 %701 мм3.4 м/с5 %
    18:00Ясно и безоблачно+23°C43 %701 мм2.8 м/с5 %
    21:00Ясно и безоблачно+20°C55 %702 мм3.5 м/с5 %
Мы используем cookies
Соглашаюсь